Time;durP1;ratioP1;P1;durP2;ratioP2;P2;SDS_P1;SDS_P2;PMS_P1;PMS_P2;Temp;Humidity;BMP_temperature;BMP_pressure;BME280_temperature;BME280_humidity;BME280_pressure;Samples;Min_cycle;Max_cycle;Signal;HPM_P1;HPM_P2
2023/07/07 00:01:11;;;;;;;14.80;3.08;;;;;;;17.16;100.00;101374.03;5043296;28;20032;-73
2023/07/07 00:03:37;;;;;;;10.63;2.90;;;;;;;17.19;100.00;101373.59;5043699;28;20029;-74
2023/07/07 00:06:02;;;;;;;10.07;2.92;;;;;;;17.17;100.00;101370.25;5061977;28;20387;-74
2023/07/07 00:08:28;;;;;;;12.65;3.83;;;;;;;17.17;100.00;101383.84;5063203;28;20053;-74
2023/07/07 00:10:54;;;;;;;14.40;2.70;;;;;;;17.13;100.00;101379.94;5061975;28;20037;-74
2023/07/07 00:13:20;;;;;;;14.10;3.42;;;;;;;17.15;100.00;101383.25;5045622;28;20040;-74
2023/07/07 00:15:46;;;;;;;15.73;3.13;;;;;;;17.05;100.00;101370.22;5043453;28;20059;-74
2023/07/07 00:18:27;;;;;;;10.07;2.85;;;;;;;17.13;100.00;101385.38;5043719;28;20509;-73
2023/07/07 00:20:58;;;;;;;8.95;2.35;;;;;;;17.01;100.00;101376.31;5043768;28;20031;-74
2023/07/07 00:23:25;;;;;;;8.57;2.55;;;;;;;16.96;100.00;101378.91;5062755;28;20063;-74
2023/07/07 00:26:09;;;;;;;12.75;3.22;;;;;;;17.05;100.00;101385.66;5044728;28;20021;-74
2023/07/07 00:28:35;;;;;;;9.70;2.67;;;;;;;17.05;100.00;101386.53;5062081;28;20036;-74
2023/07/07 00:31:02;;;;;;;10.75;2.85;;;;;;;16.97;100.00;101370.50;5063159;28;20036;-74
2023/07/07 00:33:28;;;;;;;13.73;2.80;;;;;;;17.05;100.00;101393.81;5063138;28;20032;-73
2023/07/07 00:35:53;;;;;;;15.07;3.10;;;;;;;16.99;100.00;101389.31;5044047;28;20024;-73
2023/07/07 00:38:19;;;;;;;9.30;2.65;;;;;;;16.96;100.00;101378.91;5042472;28;20029;-74
2023/07/07 00:40:45;;;;;;;11.55;2.90;;;;;;;17.07;100.00;101397.97;5046268;28;20033;-73
2023/07/07 00:43:12;;;;;;;9.35;2.45;;;;;;;16.86;100.00;101380.25;5062997;28;20040;-74
2023/07/07 00:45:39;;;;;;;11.23;2.58;;;;;;;17.00;100.00;101396.41;5062496;28;20458;-74
2023/07/07 00:48:09;;;;;;;9.65;2.90;;;;;;;17.05;100.00;101411.00;5061083;28;20033;-74
2023/07/07 00:50:51;;;;;;;10.55;2.83;;;;;;;17.03;100.00;101399.50;5061832;28;20071;-74
2023/07/07 00:53:17;;;;;;;10.48;2.72;;;;;;;16.94;100.00;101403.56;5044039;28;20140;-74
2023/07/07 00:55:48;;;;;;;8.70;2.45;;;;;;;16.96;100.00;101404.19;5062210;28;20080;-74
2023/07/07 00:58:18;;;;;;;12.82;3.00;;;;;;;16.67;100.00;101354.09;5062546;28;20085;-74
2023/07/07 01:00:50;;;;;;;11.95;2.83;;;;;;;16.96;100.00;101406.09;5044837;28;20043;-73
2023/07/07 01:03:25;;;;;;;14.25;2.72;;;;;;;16.98;100.00;101396.63;5062303;28;20088;-74
2023/07/07 01:05:55;;;;;;;7.85;2.70;;;;;;;16.98;100.00;101404.78;5062247;28;20041;-74
2023/07/07 01:08:21;;;;;;;12.38;2.60;;;;;;;16.95;100.00;101409.84;5044818;28;20028;-74
2023/07/07 01:10:46;;;;;;;9.15;2.40;;;;;;;16.85;100.00;101394.91;5042503;28;20036;-73
2023/07/07 01:13:12;;;;;;;10.82;2.47;;;;;;;16.95;100.00;101418.00;5042314;28;20036;-73
2023/07/07 01:15:56;;;;;;;9.32;2.25;;;;;;;16.98;100.00;101417.53;5047362;28;20484;-74
2023/07/07 01:18:39;;;;;;;12.73;2.67;;;;;;;17.01;100.00;101420.63;5043981;28;20028;-74
2023/07/07 01:21:13;;;;;;;11.25;2.55;;;;;;;17.02;100.00;101427.75;5059591;28;20466;-74
2023/07/07 01:23:56;;;;;;;9.05;2.47;;;;;;;17.01;100.00;101428.78;5062384;28;20021;-74
2023/07/07 01:26:51;;;;;;;6.82;2.40;;;;;;;16.95;100.00;101421.53;5040099;28;20116;-74
2023/07/07 01:29:42;;;;;;;10.48;2.50;;;;;;;17.04;100.00;101428.34;5061173;28;20033;-74
2023/07/07 01:32:18;;;;;;;10.15;2.40;;;;;;;17.04;100.00;101430.25;5067660;28;20094;-74
2023/07/07 01:34:46;;;;;;;14.45;3.53;;;;;;;16.98;100.00;101414.81;5064033;28;20024;-73
2023/07/07 01:37:12;;;;;;;9.95;2.30;;;;;;;17.02;100.00;101432.34;5062469;28;20036;-74
2023/07/07 01:39:38;;;;;;;11.02;2.88;;;;;;;16.91;100.00;101420.34;5062078;28;20028;-74
2023/07/07 01:42:23;;;;;;;8.40;2.08;;;;;;;16.97;100.00;101424.06;5061989;28;20025;-74
2023/07/07 01:44:57;;;;;;;12.48;3.17;;;;;;;16.97;100.00;101433.03;5043805;28;20464;-74
2023/07/07 01:47:35;;;;;;;13.77;2.95;;;;;;;17.00;100.00;101440.75;5060137;28;20033;-74
2023/07/07 01:50:09;;;;;;;9.65;2.08;;;;;;;16.85;100.00;101415.81;5043172;28;20438;-74
2023/07/07 01:52:39;;;;;;;9.73;2.40;;;;;;;17.00;100.00;101443.47;5058232;28;20507;-74
2023/07/07 01:55:32;;;;;;;10.75;2.22;;;;;;;17.01;100.00;101438.84;5040721;28;20040;-74
2023/07/07 01:58:01;;;;;;;9.77;2.33;;;;;;;16.92;100.00;101435.63;5059704;28;20032;-74
2023/07/07 02:00:29;;;;;;;11.15;2.80;;;;;;;16.95;100.00;101445.19;5060103;28;20112;-73
2023/07/07 02:02:56;;;;;;;13.15;2.55;;;;;;;16.86;100.00;101431.06;5059393;28;20056;-74
2023/07/07 02:05:22;;;;;;;14.75;2.50;;;;;;;16.99;100.00;101446.41;5041725;28;20031;-74
2023/07/07 02:07:48;;;;;;;12.18;2.65;;;;;;;16.98;100.00;101458.31;5042748;28;20097;-73
2023/07/07 02:10:13;;;;;;;13.10;2.50;;;;;;;16.97;100.00;101453.94;5061427;28;20025;-74
2023/07/07 02:12:39;;;;;;;8.88;2.17;;;;;;;16.99;100.00;101454.56;5060450;28;20047;-74
2023/07/07 02:15:05;;;;;;;6.22;2.00;;;;;;;16.90;100.00;101445.88;5059782;28;20029;-73
2023/07/07 02:17:30;;;;;;;9.43;1.95;;;;;;;17.00;100.00;101461.66;5043022;28;20040;-74
2023/07/07 02:19:56;;;;;;;9.02;1.90;;;;;;;16.97;100.00;101462.94;5041877;28;20543;-74
2023/07/07 02:22:22;;;;;;;7.25;1.90;;;;;;;16.98;100.00;101466.47;5040336;28;20098;-74
2023/07/07 02:24:47;;;;;;;9.20;2.17;;;;;;;16.87;100.00;101438.16;5039277;28;20468;-74
2023/07/07 02:27:13;;;;;;;7.03;2.15;;;;;;;17.02;100.00;101467.69;5061568;28;20036;-74
2023/07/07 02:29:38;;;;;;;6.10;2.00;;;;;;;16.99;100.00;101460.84;5068200;28;20036;-74
2023/07/07 02:32:05;;;;;;;9.27;1.80;;;;;;;17.00;100.00;101453.50;5067363;28;20056;-73
2023/07/07 02:34:30;;;;;;;7.80;1.80;;;;;;;17.01;100.00;101447.00;5043744;28;20051;-74
2023/07/07 02:36:56;;;;;;;9.68;2.15;;;;;;;17.13;100.00;101458.78;5061401;28;20048;-74
2023/07/07 02:39:21;;;;;;;11.15;2.42;;;;;;;17.13;100.00;101467.78;5061324;28;20039;-74
2023/07/07 02:41:47;;;;;;;11.70;1.90;;;;;;;17.13;100.00;101473.22;5061270;28;20029;-74
2023/07/07 02:44:13;;;;;;;11.85;2.60;;;;;;;17.13;100.00;101472.41;5060970;28;20079;-74
2023/07/07 02:46:39;;;;;;;11.90;1.75;;;;;;;17.13;100.00;101484.09;5060800;28;20017;-74
2023/07/07 02:49:04;;;;;;;9.15;2.33;;;;;;;17.06;100.00;101458.88;5042801;28;20123;-73
2023/07/07 02:51:30;;;;;;;7.78;1.75;;;;;;;17.10;100.00;101481.81;5042644;28;20033;-73
2023/07/07 02:53:56;;;;;;;11.15;2.20;;;;;;;17.11;100.00;101471.78;5060120;28;20021;-73
2023/07/07 02:56:22;;;;;;;7.70;2.20;;;;;;;17.17;100.00;101489.09;5041772;28;20029;-74
2023/07/07 02:58:48;;;;;;;6.95;1.70;;;;;;;17.05;100.00;101476.25;5058926;28;20566;-74
2023/07/07 03:01:17;;;;;;;9.40;2.03;;;;;;;17.21;100.00;101495.72;5041195;28;20059;-73
2023/07/07 03:03:47;;;;;;;7.70;1.90;;;;;;;17.29;100.00;101496.28;5059615;28;20050;-74
2023/07/07 03:06:17;;;;;;;9.73;2.22;;;;;;;17.30;100.00;101499.81;5060285;28;20155;-74
2023/07/07 03:08:43;;;;;;;7.57;1.85;;;;;;;17.27;100.00;101484.78;5059971;28;20113;-74
2023/07/07 03:11:11;;;;;;;9.88;1.83;;;;;;;17.32;100.00;101508.59;5060213;28;20503;-74
2023/07/07 03:13:40;;;;;;;9.90;1.83;;;;;;;17.20;100.00;101481.31;5060089;28;20028;-74
2023/07/07 03:16:11;;;;;;;7.75;1.90;;;;;;;17.45;100.00;101513.88;5041326;28;20178;-74
2023/07/07 03:18:39;;;;;;;9.75;1.70;;;;;;;17.29;100.00;101487.28;5040524;28;20021;-74
2023/07/07 03:21:04;;;;;;;8.07;1.80;;;;;;;17.43;100.00;101510.53;5058451;28;20025;-74
2023/07/07 03:23:30;;;;;;;9.25;1.80;;;;;;;17.51;100.00;101518.38;5059240;28;20036;-74
2023/07/07 03:25:56;;;;;;;8.48;1.90;;;;;;;17.45;100.00;101508.44;5041868;28;20056;-74
2023/07/07 03:28:21;;;;;;;8.43;1.90;;;;;;;17.57;100.00;101530.25;5056001;28;20033;-74
2023/07/07 03:30:48;;;;;;;10.23;1.98;;;;;;;17.44;100.00;101503.22;5061378;28;20041;-74
2023/07/07 03:33:14;;;;;;;9.25;2.00;;;;;;;17.49;100.00;101515.09;5067125;28;20033;-74
2023/07/07 03:35:39;;;;;;;11.27;2.17;;;;;;;17.55;100.00;101516.06;5044967;28;20494;-74
2023/07/07 03:38:05;;;;;;;8.73;1.85;;;;;;;17.63;100.00;101523.91;5041472;28;20025;-74
2023/07/07 03:40:31;;;;;;;12.18;2.13;;;;;;;17.60;100.00;101527.09;5041922;28;20036;-74
2023/07/07 03:42:57;;;;;;;7.72;1.70;;;;;;;17.74;100.00;101527.75;5059413;28;20040;-74
2023/07/07 03:45:22;;;;;;;7.05;1.63;;;;;;;17.61;100.00;101507.81;5041156;28;20090;-74
2023/07/07 03:47:48;;;;;;;9.40;1.83;;;;;;;17.56;100.00;101518.53;5042429;28;20098;-74
2023/07/07 03:50:13;;;;;;;10.80;1.98;;;;;;;17.69;100.00;101524.91;5059216;28;20503;-74
2023/07/07 03:52:39;;;;;;;9.18;1.67;;;;;;;17.56;100.00;101525.88;5042380;28;20128;-74
2023/07/07 03:55:05;;;;;;;9.32;1.80;;;;;;;17.70;100.00;101540.16;5042169;28;20032;-74
2023/07/07 03:57:30;;;;;;;10.63;1.90;;;;;;;17.76;100.00;101548.28;5058668;28;20041;-74
2023/07/07 03:59:55;;;;;;;11.63;2.13;;;;;;;17.76;100.00;101537.38;5058712;28;20033;-74
2023/07/07 04:02:21;;;;;;;10.98;1.80;;;;;;;17.84;100.00;101547.94;5059427;28;20032;-74
2023/07/07 04:04:47;;;;;;;7.93;1.70;;;;;;;17.81;100.00;101528.50;5059956;28;20032;-74
2023/07/07 04:07:12;;;;;;;7.30;1.63;;;;;;;17.98;100.00;101547.75;5042014;28;20029;-74
2023/07/07 04:09:38;;;;;;;6.50;1.70;;;;;;;17.95;100.00;101540.09;5041645;28;20039;-74
2023/07/07 04:12:07;;;;;;;14.25;2.00;;;;;;;18.03;100.00;101556.09;5041168;28;20029;-74
2023/07/07 04:14:33;;;;;;;7.22;1.73;;;;;;;17.93;100.00;101550.38;5039200;28;20390;-74
2023/07/07 04:16:58;;;;;;;10.88;1.92;;;;;;;17.93;100.00;101547.66;5041377;28;20055;-74
2023/07/07 04:19:24;;;;;;;12.20;2.20;;;;;;;18.05;100.00;101551.25;5041628;28;20025;-73
2023/07/07 04:21:49;;;;;;;7.90;1.35;;;;;;;18.33;100.00;101566.16;5041515;28;20086;-74
2023/07/07 04:24:19;;;;;;;10.90;1.90;;;;;;;18.29;100.00;101566.59;5058729;28;20029;-74
2023/07/07 04:26:45;;;;;;;9.35;1.77;;;;;;;18.36;100.00;101569.25;5041039;28;20025;-74
2023/07/07 04:29:10;;;;;;;6.30;1.45;;;;;;;18.44;100.00;101543.53;5059520;28;20048;-74
2023/07/07 04:31:36;;;;;;;12.88;2.00;;;;;;;18.41;100.00;101576.72;5039929;28;20028;-74
2023/07/07 04:34:01;;;;;;;6.43;1.63;;;;;;;18.61;100.00;101573.69;5040367;28;20048;-74
2023/07/07 04:36:26;;;;;;;10.55;1.67;;;;;;;18.64;100.00;101587.69;5039071;28;20033;-73
2023/07/07 04:38:52;;;;;;;9.57;1.70;;;;;;;18.63;100.00;101586.00;5043078;28;20063;-73
2023/07/07 04:41:21;;;;;;;10.55;1.60;;;;;;;18.72;99.98;101581.91;5060572;28;20058;-73
2023/07/07 04:43:49;;;;;;;11.32;2.35;;;;;;;19.22;96.25;101578.75;5062652;28;20288;-74
2023/07/07 04:46:18;;;;;;;6.68;1.92;;;;;;;19.95;92.41;101581.97;5042406;28;20017;-74
2023/07/07 04:48:43;;;;;;;10.07;1.65;;;;;;;19.83;92.68;101594.84;5044862;28;20119;-73
2023/07/07 04:51:11;;;;;;;8.18;1.73;;;;;;;19.40;95.26;101601.50;5045893;28;20056;-74
2023/07/07 04:53:38;;;;;;;10.32;1.77;;;;;;;19.25;95.59;101591.09;5063114;28;20513;-74
2023/07/07 04:56:14;;;;;;;4.18;1.27;;;;;;;19.87;91.05;101579.66;5062710;28;20048;-74
2023/07/07 04:58:40;;;;;;;8.82;1.83;;;;;;;19.45;93.00;101593.47;5062492;28;20025;-74
2023/07/07 05:01:06;;;;;;;11.70;1.75;;;;;;;19.64;92.41;101599.66;5060946;28;20029;-75
2023/07/07 05:03:32;;;;;;;9.55;1.95;;;;;;;19.32;93.61;101572.69;5058816;28;20124;-74
2023/07/07 05:05:58;;;;;;;8.15;1.77;;;;;;;19.30;95.05;101604.84;5050464;28;20483;-73
2023/07/07 05:08:23;;;;;;;10.07;2.17;;;;;;;19.22;95.46;101614.22;5072042;28;20036;-74
2023/07/07 05:10:49;;;;;;;8.80;1.95;;;;;;;19.38;94.49;101611.84;5036358;28;20025;-74
2023/07/07 05:13:14;;;;;;;8.13;2.03;;;;;;;19.40;93.87;101606.97;5065539;28;20039;-74
2023/07/07 05:15:40;;;;;;;9.05;1.40;;;;;;;19.27;94.54;101602.63;5062201;28;20089;-74
2023/07/07 05:18:05;;;;;;;5.65;1.50;;;;;;;19.51;92.86;101591.69;5061165;28;20025;-74
2023/07/07 05:20:31;;;;;;;8.40;1.85;;;;;;;19.44;92.89;101595.34;5061285;28;20028;-73
2023/07/07 05:22:56;;;;;;;6.47;1.40;;;;;;;19.42;93.10;101610.31;5043573;28;20064;-74
2023/07/07 05:25:22;;;;;;;9.85;1.58;;;;;;;19.51;91.84;101610.78;5044238;28;20112;-74
2023/07/07 05:27:47;;;;;;;12.18;1.77;;;;;;;19.75;89.30;101592.50;5062634;28;20025;-74
2023/07/07 05:30:12;;;;;;;7.95;1.52;;;;;;;20.06;87.58;101600.22;5044360;28;20080;-74
2023/07/07 05:32:38;;;;;;;8.27;1.65;;;;;;;19.86;88.87;101610.72;5065058;28;20056;-74
2023/07/07 05:35:03;;;;;;;8.00;1.40;;;;;;;19.91;88.47;101602.66;5047445;28;20445;-74
2023/07/07 05:37:29;;;;;;;5.88;1.45;;;;;;;19.86;88.58;101621.66;5059762;28;20035;-75
2023/07/07 05:39:54;;;;;;;8.40;1.50;;;;;;;20.02;88.43;101620.91;5043248;28;20048;-74
2023/07/07 05:42:20;;;;;;;6.97;1.40;;;;;;;20.31;87.01;101629.13;5044429;28;20072;-74
2023/07/07 05:44:45;;;;;;;6.53;1.48;;;;;;;20.44;85.55;101634.31;5059089;28;20049;-74
2023/07/07 05:47:11;;;;;;;8.70;1.45;;;;;;;20.68;83.92;101626.00;5042589;28;20506;-74
2023/07/07 05:49:36;;;;;;;7.50;1.27;;;;;;;20.82;83.72;101630.06;5059988;28;20040;-74
2023/07/07 05:52:01;;;;;;;9.55;1.67;;;;;;;20.89;82.83;101625.28;5054724;28;20024;-75
2023/07/07 05:54:27;;;;;;;6.78;1.52;;;;;;;21.04;82.19;101635.66;5057988;28;20052;-74
2023/07/07 05:56:54;;;;;;;6.40;1.10;;;;;;;20.87;81.95;101614.59;5066878;28;20433;-74
2023/07/07 05:59:20;;;;;;;8.82;1.50;;;;;;;20.83;81.58;101639.97;5068150;28;20081;-75
2023/07/07 06:01:45;;;;;;;4.82;1.50;;;;;;;20.76;81.66;101623.72;5060670;28;20080;-74
2023/07/07 06:04:11;;;;;;;8.23;1.50;;;;;;;21.09;81.27;101636.56;5043062;28;20039;-74
2023/07/07 06:06:36;;;;;;;9.32;1.60;;;;;;;21.02;81.79;101630.41;5042368;28;20415;-74
2023/07/07 06:09:02;;;;;;;5.72;1.27;;;;;;;20.86;81.40;101647.66;5041921;28;20032;-74
2023/07/07 06:11:27;;;;;;;5.97;1.65;;;;;;;20.90;80.35;101653.47;5059682;28;20484;-74
2023/07/07 06:13:53;;;;;;;9.90;1.33;;;;;;;21.12;79.78;101665.34;5041422;28;20037;-74
2023/07/07 06:16:19;;;;;;;7.72;1.23;;;;;;;20.91;79.38;101650.50;5059575;28;20052;-74
2023/07/07 06:18:44;;;;;;;5.20;1.67;;;;;;;20.92;79.91;101660.34;5041877;28;20092;-74
2023/07/07 06:21:10;;;;;;;5.60;1.35;;;;;;;20.72;81.14;101646.31;5058928;28;20025;-74
2023/07/07 06:23:35;;;;;;;6.90;1.30;;;;;;;20.68;81.49;101667.03;5060037;28;20033;-74
2023/07/07 06:26:01;;;;;;;5.72;1.40;;;;;;;20.96;80.38;101661.53;5042850;28;20108;-74
2023/07/07 06:28:26;;;;;;;5.43;1.05;;;;;;;20.72;80.51;101668.19;5061506;28;20052;-74
2023/07/07 06:30:52;;;;;;;6.47;1.60;;;;;;;21.04;79.96;101660.28;5060583;28;20025;-74
2023/07/07 06:33:19;;;;;;;10.55;2.15;;;;;;;21.38;79.12;101666.59;5060959;28;20048;-74
2023/07/07 06:35:45;;;;;;;4.72;1.23;;;;;;;21.29;79.17;101637.94;5061142;28;20043;-74
2023/07/07 06:38:11;;;;;;;9.02;1.50;;;;;;;21.09;79.88;101653.00;5061939;28;20455;-74
2023/07/07 06:40:37;;;;;;;7.70;1.35;;;;;;;20.96;79.38;101653.31;5062630;28;20025;-74
2023/07/07 06:43:02;;;;;;;7.97;1.55;;;;;;;21.09;79.44;101668.56;5043442;28;20055;-74
2023/07/07 06:45:28;;;;;;;8.73;1.40;;;;;;;21.19;79.49;101673.38;5043864;28;20116;-74
2023/07/07 06:47:54;;;;;;;6.05;1.50;;;;;;;21.23;78.50;101652.66;5043056;28;20037;-74
2023/07/07 06:50:40;;;;;;;9.25;1.73;;;;;;;21.62;77.75;101688.31;5058469;28;20460;-74
2023/07/07 06:53:05;;;;;;;8.50;1.50;;;;;;;21.42;77.69;101684.19;5043908;28;20039;-74
2023/07/07 06:55:30;;;;;;;8.50;1.85;;;;;;;21.35;77.48;101678.06;5058443;28;20029;-74
2023/07/07 06:57:56;;;;;;;5.97;1.40;;;;;;;21.45;77.24;101685.59;5042422;28;20075;-74
2023/07/07 07:00:21;;;;;;;9.32;1.48;;;;;;;21.50;77.01;101692.00;5058364;28;20104;-74
2023/07/07 07:02:47;;;;;;;4.28;1.30;;;;;;;21.44;77.07;101690.25;5056893;28;20048;-74
2023/07/07 07:05:13;;;;;;;8.50;1.50;;;;;;;21.32;78.15;101678.50;5067841;28;20032;-74
2023/07/07 07:07:38;;;;;;;6.07;1.33;;;;;;;21.08;79.53;101678.69;5042759;28;20055;-74
2023/07/07 07:10:05;;;;;;;6.05;1.40;;;;;;;20.65;80.40;101702.00;5041913;28;20036;-74
2023/07/07 07:12:31;;;;;;;9.30;1.60;;;;;;;20.82;79.58;101696.56;5059448;28;20104;-74
2023/07/07 07:14:56;;;;;;;6.18;1.52;;;;;;;21.04;79.09;101699.41;5042676;28;20049;-74
2023/07/07 07:17:23;;;;;;;7.43;1.50;;;;;;;20.94;79.11;101693.78;5042561;28;20025;-74
2023/07/07 07:19:48;;;;;;;5.80;1.50;;;;;;;20.99;79.33;101702.09;5060611;28;20040;-74
2023/07/07 07:22:14;;;;;;;5.32;1.30;;;;;;;21.06;79.09;101693.72;5042860;28;20033;-74
2023/07/07 07:24:41;;;;;;;7.65;1.40;;;;;;;21.08;79.53;101694.28;5042358;28;20035;-74
2023/07/07 07:27:06;;;;;;;6.95;1.50;;;;;;;21.42;78.77;101695.13;5059645;28;20032;-74
2023/07/07 07:29:32;;;;;;;5.38;1.40;;;;;;;21.15;79.27;101699.59;5042725;28;20044;-74
2023/07/07 07:31:57;;;;;;;5.55;1.52;;;;;;;21.05;79.00;101672.88;5041516;28;20479;-74
2023/07/07 07:34:25;;;;;;;7.75;1.70;;;;;;;21.16;79.63;101703.97;5054306;28;20039;-74
2023/07/07 07:36:52;;;;;;;5.50;1.50;;;;;;;21.12;80.12;101698.16;5040404;28;20037;-74
2023/07/07 07:39:18;;;;;;;9.23;1.73;;;;;;;21.13;79.51;101704.50;5057580;28;20039;-74
2023/07/07 07:41:49;;;;;;;5.50;1.52;;;;;;;20.87;79.69;101706.78;5060546;28;20029;-74
2023/07/07 07:44:15;;;;;;;8.80;1.42;;;;;;;20.86;79.09;101691.41;5041803;28;20049;-73
2023/07/07 07:46:42;;;;;;;8.48;1.60;;;;;;;21.23;78.61;101708.22;5042319;28;20132;-74
2023/07/07 07:49:08;;;;;;;6.63;1.30;;;;;;;21.31;77.87;101721.50;5062074;28;20052;-74
2023/07/07 07:51:37;;;;;;;6.93;1.85;;;;;;;21.12;77.87;101720.06;5042234;28;20052;-74
2023/07/07 07:54:04;;;;;;;6.07;1.48;;;;;;;21.07;78.09;101720.00;5041546;28;20483;-74
2023/07/07 07:56:29;;;;;;;8.85;1.90;;;;;;;21.37;77.91;101719.72;5059121;28;20025;-74
2023/07/07 07:58:55;;;;;;;7.53;1.73;;;;;;;21.58;77.59;101723.59;5057795;28;20028;-74
2023/07/07 08:01:20;;;;;;;7.60;1.33;;;;;;;21.34;78.21;101731.13;5042696;28;20029;-74
2023/07/07 08:03:46;;;;;;;8.38;1.63;;;;;;;21.47;77.80;101724.53;5062947;28;20083;-73
2023/07/07 08:06:11;;;;;;;8.18;1.58;;;;;;;21.78;77.03;101737.59;5058896;28;20511;-74
2023/07/07 08:08:37;;;;;;;3.97;1.50;;;;;;;22.03;76.41;101723.44;5060239;28;20048;-73
2023/07/07 08:11:02;;;;;;;5.07;1.48;;;;;;;21.90;76.52;101740.25;5060458;28;20100;-73
2023/07/07 08:13:27;;;;;;;5.72;1.63;;;;;;;21.84;76.39;101730.28;5061254;28;20081;-74
2023/07/07 08:15:53;;;;;;;10.75;1.80;;;;;;;21.98;76.69;101737.06;5045505;28;20276;-74
2023/07/07 08:18:18;;;;;;;7.18;1.58;;;;;;;22.09;76.08;101746.25;5062826;28;20111;-74
2023/07/07 08:20:44;;;;;;;7.70;1.50;;;;;;;21.85;76.68;101742.88;5045388;28;20029;-74
2023/07/07 08:23:10;;;;;;;6.32;1.63;;;;;;;21.95;76.60;101753.16;5046420;28;20052;-74
2023/07/07 08:25:35;;;;;;;6.60;1.58;;;;;;;21.77;77.47;101737.84;5062039;28;20052;-73
2023/07/07 08:28:01;;;;;;;5.00;1.50;;;;;;;21.79;77.17;101752.13;5062821;28;20031;-73
2023/07/07 08:30:27;;;;;;;7.88;1.63;;;;;;;21.87;76.81;101759.91;5045333;28;20033;-74
2023/07/07 08:32:54;;;;;;;6.45;1.30;;;;;;;21.68;76.47;101772.22;5045432;28;20119;-74
2023/07/07 08:35:19;;;;;;;8.15;1.67;;;;;;;21.86;76.31;101777.44;5064259;28;20025;-74
2023/07/07 08:37:45;;;;;;;5.38;1.45;;;;;;;21.91;76.13;101772.03;5045448;28;20976;-73
2023/07/07 08:40:18;;;;;;;5.97;1.60;;;;;;;22.17;75.13;101777.91;5063105;28;20503;-74
2023/07/07 08:42:45;;;;;;;8.88;1.58;;;;;;;22.17;74.63;101781.47;5046038;28;20111;-74
2023/07/07 08:45:14;;;;;;;5.43;1.38;;;;;;;22.29;74.02;101781.38;5046320;28;20037;-74
2023/07/07 08:47:52;;;;;;;5.65;1.67;;;;;;;22.08;74.01;101774.75;5046096;28;20423;-74
2023/07/07 08:50:20;;;;;;;7.38;1.38;;;;;;;21.99;74.41;101790.81;5046610;28;20052;-74
2023/07/07 08:53:02;;;;;;;7.40;1.90;;;;;;;22.08;74.27;101784.88;5064462;28;20040;-74
2023/07/07 08:55:47;;;;;;;7.43;1.50;;;;;;;21.90;75.10;101792.31;5063751;28;20040;-75
2023/07/07 08:58:18;;;;;;;7.85;2.03;;;;;;;21.81;76.46;101797.38;5045600;28;20045;-73
2023/07/07 09:01:02;;;;;;;9.13;1.75;;;;;;;21.74;77.56;101795.88;5062005;28;20021;-74
2023/07/07 09:03:33;;;;;;;6.05;1.35;;;;;;;21.95;77.46;101802.50;5060813;28;20710;-73
2023/07/07 09:06:10;;;;;;;6.18;1.83;;;;;;;22.00;76.68;101789.72;5059201;28;20036;-74
2023/07/07 09:08:53;;;;;;;7.15;1.60;;;;;;;21.98;77.16;101796.50;5062470;28;20028;-73
2023/07/07 09:11:30;;;;;;;9.63;2.20;;;;;;;21.90;77.70;101806.00;5065120;28;20037;-74
2023/07/07 09:13:58;;;;;;;7.43;1.52;;;;;;;21.69;78.53;101812.22;5062789;28;20052;-74
2023/07/07 09:16:29;;;;;;;6.97;1.58;;;;;;;21.52;79.31;101815.81;5063631;28;20016;-74
2023/07/07 09:18:59;;;;;;;9.40;1.90;;;;;;;21.31;80.44;101814.56;5063345;28;20044;-73
2023/07/07 09:21:35;;;;;;;9.48;1.85;;;;;;;21.38;79.55;101814.44;5063544;28;20465;-74
2023/07/07 09:24:20;;;;;;;5.55;1.58;;;;;;;21.43;79.25;101809.06;5044011;28;20042;-74
2023/07/07 09:26:50;;;;;;;6.88;1.50;;;;;;;21.74;78.13;101807.66;5060643;28;20027;-74
2023/07/07 09:29:24;;;;;;;6.65;1.50;;;;;;;21.91;77.68;101818.63;5061011;28;20369;-74
2023/07/07 09:31:49;;;;;;;7.15;1.42;;;;;;;21.83;77.51;101805.34;5063235;28;20028;-74
2023/07/07 09:34:15;;;;;;;7.78;1.52;;;;;;;21.90;77.16;101806.00;5045561;28;20029;-74
2023/07/07 09:36:46;;;;;;;8.57;1.60;;;;;;;21.68;77.24;101814.13;5063507;28;20103;-73
2023/07/07 09:39:38;;;;;;;6.18;1.40;;;;;;;21.69;77.49;101804.00;5063283;28;20051;-74
2023/07/07 09:42:11;;;;;;;5.93;1.70;;;;;;;21.74;77.29;101815.88;5058675;28;20057;-73
2023/07/07 09:45:15;;;;;;;7.25;2.30;;;;;;;21.98;77.44;101808.31;5063084;28;20052;-73
2023/07/07 09:48:02;;;;;;;5.13;1.20;;;;;;;22.13;77.14;101815.13;4975294;28;20043;-74
2023/07/07 09:50:39;;;;;;;7.95;1.85;;;;;;;21.81;77.64;101810.22;5063211;28;20476;-74
2023/07/07 09:53:11;;;;;;;9.18;2.10;;;;;;;21.98;78.20;101824.75;5063125;28;20028;-73
2023/07/07 09:55:38;;;;;;;7.60;1.75;;;;;;;22.03;77.96;101827.59;5060208;28;20452;-74
2023/07/07 09:58:04;;;;;;;7.28;1.60;;;;;;;22.08;76.55;101826.81;5043787;28;20064;-74
2023/07/07 10:00:32;;;;;;;5.20;1.63;;;;;;;22.22;76.25;101827.34;5064054;28;20029;-74
2023/07/07 10:02:58;;;;;;;8.00;1.60;;;;;;;22.21;74.70;101833.88;5050290;28;20113;-74
2023/07/07 10:05:31;;;;;;;6.55;1.33;;;;;;;22.20;73.53;101827.59;5047131;28;20562;-73
2023/07/07 10:08:00;;;;;;;7.57;1.60;;;;;;;22.23;72.31;101834.47;5044168;28;20028;-74
2023/07/07 10:10:25;;;;;;;6.28;1.63;;;;;;;22.47;71.41;101838.66;5041756;28;20344;-74
2023/07/07 10:12:51;;;;;;;5.45;1.50;;;;;;;22.54;70.44;101843.13;5062676;28;20049;-74
2023/07/07 10:15:19;;;;;;;8.10;1.60;;;;;;;22.33;69.52;101840.09;5061725;28;20063;-73
2023/07/07 10:17:57;;;;;;;4.43;1.35;;;;;;;22.59;70.06;101845.94;5062406;28;20056;-74
2023/07/07 10:20:23;;;;;;;6.75;1.50;;;;;;;22.50;69.45;101843.63;5044248;28;20492;-73
2023/07/07 10:22:48;;;;;;;6.47;1.40;;;;;;;22.77;68.85;101847.53;5043945;28;20048;-74
2023/07/07 10:25:15;;;;;;;8.25;1.50;;;;;;;22.67;68.43;101837.25;5043992;28;20029;-74
2023/07/07 10:27:53;;;;;;;5.90;2.10;;;;;;;22.44;68.81;101849.31;5043409;28;20100;-74
2023/07/07 10:30:20;;;;;;;4.80;1.75;;;;;;;22.51;68.19;101850.75;5062009;28;20032;-74
2023/07/07 10:32:46;;;;;;;7.15;1.70;;;;;;;22.56;68.33;101847.28;5061233;28;20182;-74
2023/07/07 10:35:18;;;;;;;4.55;1.33;;;;;;;22.77;68.20;101834.66;5060987;28;20075;-74
2023/07/07 10:37:44;;;;;;;7.65;1.50;;;;;;;22.44;67.29;101841.06;5059773;28;20483;-74
2023/07/07 10:40:14;;;;;;;5.80;1.50;;;;;;;22.37;66.89;101837.69;5042383;28;20056;-74
2023/07/07 10:42:40;;;;;;;6.65;1.40;;;;;;;22.10;67.94;101823.84;5041885;28;20397;-74
2023/07/07 10:45:07;;;;;;;5.78;1.40;;;;;;;22.05;67.53;101847.34;5050845;28;20045;-74
2023/07/07 10:47:34;;;;;;;7.78;1.55;;;;;;;21.95;68.31;101849.94;5061567;28;20490;-74
2023/07/07 10:50:01;;;;;;;6.97;1.50;;;;;;;22.20;68.87;101845.94;5061882;28;20044;-74
2023/07/07 10:52:48;;;;;;;3.85;1.40;;;;;;;22.26;69.66;101853.19;5061770;28;20037;-74
2023/07/07 10:55:29;;;;;;;5.90;1.70;;;;;;;22.30;68.88;101848.84;5044291;28;20036;-74
2023/07/07 10:58:11;;;;;;;4.78;1.30;;;;;;;22.18;68.85;101846.19;5061609;28;20033;-73
2023/07/07 11:00:59;;;;;;;4.38;1.58;;;;;;;22.40;68.26;101861.88;5042130;28;20025;-74
2023/07/07 11:04:22;;;;;;;5.50;1.33;;;;;;;22.51;68.06;101856.25;5061866;28;20468;-74
2023/07/07 11:06:51;;;;;;;4.60;1.27;;;;;;;22.78;67.20;101872.00;4963861;28;20039;-74
2023/07/07 11:09:34;;;;;;;5.15;1.40;;;;;;;22.66;66.39;101860.31;5041537;28;20047;-74
2023/07/07 11:12:18;;;;;;;3.22;1.13;;;;;;;22.74;66.82;101874.38;5043133;28;20025;-74
2023/07/07 11:15:04;;;;;;;9.20;1.50;;;;;;;22.60;66.52;101873.13;5041522;28;20390;-74
2023/07/07 11:17:42;;;;;;;4.10;1.35;;;;;;;22.51;67.01;101872.72;5030828;28;20068;-74
2023/07/07 11:20:46;;;;;;;3.67;1.40;;;;;;;22.49;67.20;101874.91;5038811;28;20208;-74
2023/07/07 11:23:30;;;;;;;5.95;1.48;;;;;;;22.63;67.60;101875.34;5017079;28;20120;-74
2023/07/07 11:26:39;;;;;;;6.00;1.50;;;;;;;22.67;67.77;101881.16;5058665;28;20113;-74
2023/07/07 11:29:26;;;;;;;4.35;1.25;;;;;;;22.84;66.95;101883.84;5042796;28;20041;-74